createdAt,value
2023-03-12T00:02:18.170Z,99699.28
2023-03-12T00:04:46.717Z,99726.80
2023-03-12T00:07:15.132Z,99729.64
2023-03-12T00:13:11.659Z,99756.00
2023-03-12T00:15:39.947Z,99757.34
2023-03-12T00:18:09.536Z,99754.95
2023-03-12T00:20:38.025Z,99760.14
2023-03-12T00:23:06.613Z,99763.86
2023-03-12T00:25:36.110Z,99769.05
2023-03-12T00:28:05.912Z,99777.52
2023-03-12T00:30:34.192Z,99787.44
2023-03-12T00:33:04.008Z,99785.69
2023-03-12T00:35:33.547Z,99788.08
2023-03-12T00:38:02.189Z,99791.52
2023-03-12T00:40:30.774Z,99790.60
2023-03-12T00:42:59.254Z,99795.69
2023-03-12T00:45:28.255Z,99804.24
2023-03-12T00:47:56.518Z,99808.19
2023-03-12T00:50:25.001Z,99820.92
2023-03-12T00:52:53.786Z,99825.30
2023-03-12T00:55:22.883Z,99828.71
2023-03-12T00:57:51.364Z,99834.27
2023-03-12T01:00:19.966Z,99833.71
2023-03-12T01:02:48.588Z,99840.59
2023-03-12T01:05:17.931Z,99843.79
2023-03-12T01:07:47.949Z,99848.95
2023-03-12T01:10:17.908Z,99846.56
2023-03-12T01:12:47.797Z,99849.73
2023-03-12T01:15:17.196Z,99855.11
2023-03-12T01:17:45.517Z,99858.91
2023-03-12T01:20:13.912Z,99862.36
2023-03-12T01:22:42.201Z,99863.48
2023-03-12T01:25:11.210Z,99872.05
2023-03-12T01:27:39.802Z,99876.91
2023-03-12T01:30:09.019Z,99876.46
2023-03-12T01:32:38.317Z,99888.10
2023-03-12T01:35:07.135Z,99897.08
2023-03-12T01:37:35.451Z,99902.61
2023-03-12T01:40:04.706Z,99911.09
2023-03-12T01:42:34.169Z,99919.27
2023-03-12T01:45:03.590Z,99922.95
2023-03-12T01:47:33.465Z,99928.76
2023-03-12T01:50:06.043Z,99934.00
2023-03-12T01:52:36.170Z,99938.57
2023-03-12T01:55:13.331Z,99946.11
2023-03-12T01:57:44.281Z,99956.89
2023-03-12T02:00:15.098Z,99959.66
2023-03-12T02:02:45.195Z,99959.54
2023-03-12T02:05:23.239Z,99964.79
2023-03-12T02:07:52.232Z,99971.75
2023-03-12T02:10:22.253Z,99976.07
2023-03-12T02:12:50.939Z,99985.19
2023-03-12T02:15:19.829Z,99988.31
2023-03-12T02:17:49.226Z,99993.16
2023-03-12T02:20:40.748Z,99997.34
2023-03-12T02:23:14.149Z,100006.69
2023-03-12T02:25:52.873Z,100019.17
2023-03-12T02:28:23.814Z,100028.70
2023-03-12T02:31:00.771Z,100034.11
2023-03-12T02:33:30.107Z,100041.03
2023-03-12T02:35:58.992Z,100041.13
2023-03-12T02:38:36.575Z,100054.45
2023-03-12T02:41:12.632Z,100066.10
2023-03-12T02:43:46.947Z,100072.30
2023-03-12T02:46:15.638Z,100079.94
2023-03-12T02:48:44.575Z,100091.35
2023-03-12T02:51:13.101Z,100095.56
2023-03-12T02:53:41.477Z,100097.35
2023-03-12T02:56:09.857Z,100102.08
2023-03-12T02:58:40.588Z,100098.50
2023-03-12T03:01:09.077Z,100105.17
2023-03-12T03:03:37.551Z,100107.80
2023-03-12T03:06:06.131Z,100115.99
2023-03-12T03:08:35.459Z,100114.27
2023-03-12T03:11:04.253Z,100119.89
2023-03-12T03:13:33.317Z,100119.35
2023-03-12T03:16:04.000Z,100129.58
2023-03-12T03:18:36.228Z,100137.89
2023-03-12T03:21:06.144Z,100139.68
2023-03-12T03:23:38.517Z,100145.41
2023-03-12T03:26:07.190Z,100147.44
2023-03-12T03:28:35.566Z,100161.31
2023-03-12T03:31:04.583Z,100175.97
2023-03-12T03:33:37.237Z,100184.54
2023-03-12T03:36:07.075Z,100204.32
2023-03-12T03:38:38.498Z,100212.46
2023-03-12T03:41:07.812Z,100219.36
2023-03-12T03:43:41.806Z,100235.36
2023-03-12T03:46:11.251Z,100241.00
2023-03-12T03:48:41.434Z,100249.95
2023-03-12T03:51:10.627Z,100262.41
2023-03-12T03:53:41.465Z,100261.43
2023-03-12T03:56:12.231Z,100268.05
2023-03-12T03:58:43.237Z,100276.52
2023-03-12T04:01:15.834Z,100284.66
2023-03-12T04:03:44.839Z,100292.00
2023-03-12T04:06:15.337Z,100293.45
2023-03-12T04:08:46.592Z,100298.39
2023-03-12T04:11:18.598Z,100299.23
2023-03-12T04:13:47.537Z,100313.86
2023-03-12T04:16:19.618Z,100312.77
2023-03-12T04:18:50.227Z,100321.84
2023-03-12T04:21:19.016Z,100327.30
2023-03-12T04:23:49.237Z,100338.46
2023-03-12T04:26:18.133Z,100344.86
2023-03-12T04:28:48.143Z,100348.98
2023-03-12T04:31:17.759Z,100353.17
2023-03-12T04:33:51.067Z,100362.71
2023-03-12T04:36:20.549Z,100370.54
2023-03-12T04:38:50.565Z,100374.86
2023-03-12T04:41:27.444Z,100385.75
2023-03-12T04:44:12.994Z,100390.91
2023-03-12T04:46:42.472Z,100395.91
2023-03-12T04:49:13.060Z,100404.56
2023-03-12T04:51:42.056Z,100412.62
2023-03-12T04:54:12.790Z,100417.73
2023-03-12T04:56:41.993Z,100432.96
2023-03-12T04:59:11.497Z,100438.02
2023-03-12T05:01:41.207Z,100434.64
2023-03-12T05:04:14.317Z,100441.61
2023-03-12T05:06:43.182Z,100455.09
2023-03-12T05:09:13.718Z,100464.94
2023-03-12T05:11:42.495Z,100470.13
2023-03-12T05:14:14.460Z,100477.57
2023-03-12T05:16:43.731Z,100486.90
2023-03-12T05:19:12.441Z,100491.08
2023-03-12T05:21:42.762Z,100487.45
2023-03-12T05:24:11.047Z,100499.90
2023-03-12T05:26:39.831Z,100504.15
2023-03-12T05:29:27.049Z,100523.04
2023-03-12T05:31:55.572Z,100522.34
2023-03-12T05:34:24.120Z,100532.34
2023-03-12T05:36:53.923Z,100537.53
2023-03-12T05:39:25.480Z,100543.38
2023-03-12T05:41:57.269Z,100550.10
2023-03-12T05:44:27.463Z,100569.73
2023-03-12T05:46:58.795Z,100575.27
2023-03-12T05:49:30.559Z,100584.23
2023-03-12T05:51:59.353Z,100595.80
2023-03-12T05:54:27.835Z,100603.21
2023-03-12T05:56:56.928Z,100606.85
2023-03-12T05:59:26.740Z,100610.99
2023-03-12T06:01:55.329Z,100609.11
2023-03-12T06:04:24.615Z,100611.14
2023-03-12T06:06:54.626Z,100618.05
2023-03-12T06:09:23.722Z,100619.92
2023-03-12T06:11:52.099Z,100628.38
2023-03-12T06:14:20.886Z,100631.40
2023-03-12T06:16:51.901Z,100647.56
2023-03-12T06:19:20.514Z,100654.06
2023-03-12T06:21:56.697Z,100655.86
2023-03-12T06:24:25.768Z,100651.16
2023-03-12T06:27:02.948Z,100653.13
2023-03-12T06:29:31.735Z,100658.25
2023-03-12T06:32:00.645Z,100670.77
2023-03-12T06:34:35.250Z,100682.16
2023-03-12T06:37:04.254Z,100688.38
2023-03-12T06:39:32.527Z,100696.08
2023-03-12T06:42:01.411Z,100695.91
2023-03-12T06:44:30.406Z,100693.89
2023-03-12T06:46:59.597Z,100687.92
2023-03-12T06:49:32.311Z,100691.75
2023-03-12T06:52:00.759Z,100696.11
2023-03-12T06:54:30.773Z,100695.16
2023-03-12T06:57:02.019Z,100713.37
2023-03-12T06:59:30.605Z,100728.34
2023-03-12T07:01:59.346Z,100735.79
2023-03-12T07:04:27.871Z,100755.48
2023-03-12T07:06:56.251Z,100755.30
2023-03-12T07:09:28.633Z,100764.98
2023-03-12T07:11:58.228Z,100778.08
2023-03-12T07:14:27.017Z,100773.91
2023-03-12T07:17:02.566Z,100781.02
2023-03-12T07:19:32.304Z,100778.98
2023-03-12T07:22:01.075Z,100789.23
2023-03-12T07:24:32.411Z,100799.89
2023-03-12T07:27:00.692Z,100810.91
2023-03-12T07:29:29.478Z,100815.40
2023-03-12T07:31:58.059Z,100828.23
2023-03-12T07:34:26.812Z,100841.89
2023-03-12T07:36:58.507Z,100848.98
2023-03-12T07:39:26.905Z,100856.94
2023-03-12T07:41:55.481Z,100852.12
2023-03-12T07:44:26.601Z,100844.83
2023-03-12T07:46:55.109Z,100840.19
2023-03-12T07:49:26.698Z,100842.48
2023-03-12T07:51:55.445Z,100858.63
2023-03-12T07:54:30.932Z,100856.04
2023-03-12T07:56:59.950Z,100858.10
2023-03-12T07:59:28.514Z,100865.71
2023-03-12T08:01:57.039Z,100862.05
2023-03-12T08:04:25.454Z,100863.21
2023-03-12T08:06:57.510Z,100864.39
2023-03-12T08:09:26.153Z,100878.33
2023-03-12T08:11:54.468Z,100885.15
2023-03-12T08:14:22.875Z,100877.52
2023-03-12T08:16:53.742Z,100886.67
2023-03-12T08:19:25.088Z,100889.64
2023-03-12T08:21:54.291Z,100890.71
2023-03-12T08:24:22.867Z,100907.14
2023-03-12T08:26:51.163Z,100911.98
2023-03-12T08:29:20.545Z,100918.56
2023-03-12T08:32:03.662Z,100928.95
2023-03-12T08:34:34.071Z,100931.34
2023-03-12T08:37:03.198Z,100939.73
2023-03-12T08:39:31.670Z,100934.17
2023-03-12T08:42:01.484Z,100940.81
2023-03-12T08:44:30.374Z,100954.65
2023-03-12T08:46:58.980Z,100955.86
2023-03-12T08:49:27.453Z,100963.19
2023-03-12T08:51:55.928Z,100968.12
2023-03-12T08:54:24.502Z,100972.69
2023-03-12T08:56:53.028Z,100969.41
2023-03-12T08:59:23.715Z,100973.91
2023-03-12T09:01:52.712Z,100974.63
2023-03-12T09:04:21.958Z,100978.48
2023-03-12T09:06:50.284Z,100994.27
2023-03-12T09:09:18.765Z,100992.88
2023-03-12T09:11:47.450Z,100992.14
2023-03-12T09:17:10.078Z,100983.04
2023-03-12T09:19:39.947Z,100983.49
2023-03-12T09:22:10.148Z,100984.67
2023-03-12T09:24:38.726Z,100985.55
2023-03-12T09:27:07.003Z,100987.13
2023-03-12T09:29:41.390Z,100997.35
2023-03-12T09:32:17.002Z,101005.48
2023-03-12T09:34:45.959Z,101009.98
2023-03-12T09:37:15.603Z,101011.39
2023-03-12T09:39:44.086Z,101013.53
2023-03-12T09:42:20.821Z,101009.77
2023-03-12T09:44:49.197Z,101007.98
2023-03-12T09:47:53.518Z,101009.44
2023-03-12T09:50:35.822Z,101008.76
2023-03-12T09:53:12.393Z,101011.09
2023-03-12T09:55:45.688Z,101018.81
2023-03-12T09:58:23.179Z,101026.84
2023-03-12T10:00:51.931Z,101031.10
2023-03-12T10:03:53.317Z,101038.31
2023-03-12T10:06:23.389Z,101037.58
2023-03-12T10:08:54.990Z,101037.90
2023-03-12T10:11:55.117Z,101043.79
2023-03-12T10:14:43.161Z,101041.17
2023-03-12T10:17:17.051Z,101041.11
2023-03-12T10:19:58.283Z,101049.25
2023-03-12T10:22:45.590Z,101052.72
2023-03-12T10:25:27.556Z,101057.63
2023-03-12T10:28:01.366Z,101058.10
2023-03-12T10:30:29.845Z,101061.69
2023-03-12T10:33:04.577Z,101058.44
2023-03-12T10:35:33.105Z,101061.39
2023-03-12T10:38:04.732Z,101062.73
2023-03-12T10:40:37.178Z,101066.65
2023-03-12T10:43:07.607Z,101070.10
2023-03-12T10:45:37.926Z,101074.77
2023-03-12T10:48:08.971Z,101077.73
2023-03-12T10:50:38.372Z,101075.27
2023-03-12T10:53:30.066Z,101069.02
2023-03-12T10:56:05.128Z,101066.95
2023-03-12T10:58:41.596Z,101065.08
2023-03-12T11:01:23.210Z,101061.44
2023-03-12T11:03:52.501Z,101066.89
2023-03-12T11:06:28.363Z,101071.23
2023-03-12T11:09:16.712Z,101075.73
2023-03-12T11:11:47.938Z,101077.24
2023-03-12T11:14:27.267Z,101081.48
2023-03-12T11:16:56.981Z,101084.25
2023-03-12T11:19:32.754Z,101087.73
2023-03-12T11:22:09.091Z,101093.62
2023-03-12T11:24:41.974Z,101094.02
2023-03-12T11:27:37.589Z,101085.23
2023-03-12T11:30:07.594Z,101091.12
2023-03-12T11:32:45.129Z,101099.45
2023-03-12T11:35:15.321Z,101099.18
2023-03-12T11:38:08.886Z,101100.24
2023-03-12T11:41:00.833Z,101099.13
2023-03-12T11:43:47.933Z,101102.11
2023-03-12T11:47:01.576Z,101106.69
2023-03-12T11:49:41.318Z,101109.50
2023-03-12T11:52:09.901Z,101114.87
2023-03-12T11:54:49.132Z,101116.61
2023-03-12T11:57:36.560Z,101114.71
2023-03-12T12:00:23.242Z,101116.48
2023-03-12T12:03:27.574Z,101118.38
2023-03-12T12:05:55.968Z,101121.11
2023-03-12T12:08:30.183Z,101125.41
2023-03-12T12:11:08.716Z,101124.48
2023-03-12T12:14:12.006Z,101127.05
2023-03-12T12:17:06.174Z,101130.00
2023-03-12T12:19:52.171Z,101134.26
2023-03-12T12:22:30.588Z,101135.69
2023-03-12T12:25:02.236Z,101137.96
2023-03-12T12:27:44.856Z,101136.95
2023-03-12T12:30:23.057Z,101144.80
2023-03-12T12:33:15.806Z,101147.98
2023-03-12T12:35:45.121Z,101150.05
2023-03-12T12:38:23.414Z,101154.49
2023-03-12T12:40:53.543Z,101158.44
2023-03-12T12:43:32.977Z,101159.08
2023-03-12T12:46:07.098Z,101161.65
2023-03-12T12:48:38.473Z,101160.75
2023-03-12T12:51:08.930Z,101155.52
2023-03-12T12:54:01.203Z,101165.52
2023-03-12T12:56:40.640Z,101164.59
2023-03-12T12:59:44.413Z,101166.65
2023-03-12T13:02:20.407Z,101168.90
2023-03-12T13:04:49.196Z,101171.66
2023-03-12T13:07:20.104Z,101170.58
2023-03-12T13:09:53.528Z,101173.52
2023-03-12T13:12:33.573Z,101178.24
2023-03-12T13:15:03.080Z,101183.52
2023-03-12T13:17:35.565Z,101181.42
2023-03-12T13:20:11.308Z,101182.10
2023-03-12T13:23:01.604Z,101184.69
2023-03-12T13:25:45.855Z,101189.89
2023-03-12T13:28:32.940Z,101197.15
2023-03-12T13:31:23.857Z,101207.17
2023-03-12T13:33:53.627Z,101203.17
2023-03-12T13:36:29.229Z,101203.00
2023-03-12T13:39:00.495Z,101205.48
2023-03-12T13:41:39.101Z,101205.46
2023-03-12T13:44:23.446Z,101204.58
2023-03-12T13:47:23.475Z,101211.98
2023-03-12T13:50:00.258Z,101215.06
2023-03-12T13:52:40.717Z,101225.81
2023-03-12T13:55:21.965Z,101228.91
2023-03-12T13:57:51.703Z,101233.91
2023-03-12T14:00:40.667Z,101232.17
2023-03-12T14:03:20.834Z,101225.04
2023-03-12T14:06:05.463Z,101222.41
2023-03-12T14:09:24.427Z,101232.59
2023-03-12T14:12:09.358Z,101228.23
2023-03-12T14:14:58.050Z,101231.88
2023-03-12T14:17:29.805Z,101238.81
2023-03-12T14:19:58.396Z,101244.36
2023-03-12T14:22:29.804Z,101247.64
2023-03-12T14:24:59.546Z,101248.83
2023-03-12T14:27:33.463Z,101252.47
2023-03-12T14:30:11.808Z,101252.33
2023-03-12T14:32:40.163Z,101252.85
2023-03-12T14:35:41.842Z,101256.52
2023-03-12T14:38:18.169Z,101260.87
2023-03-12T14:41:01.306Z,101264.17
2023-03-12T14:43:34.698Z,101266.05
2023-03-12T14:46:05.083Z,101271.58
2023-03-12T14:48:36.573Z,101271.92
2023-03-12T14:51:28.847Z,101280.23
2023-03-12T14:53:57.717Z,101283.20
2023-03-12T14:56:31.198Z,101285.15
2023-03-12T14:59:01.736Z,101288.30
2023-03-12T15:01:31.366Z,101296.47
2023-03-12T15:04:01.585Z,101297.68
2023-03-12T15:06:32.079Z,101297.70
2023-03-12T15:09:04.443Z,101299.02
2023-03-12T15:11:34.889Z,101300.25
2023-03-12T15:14:06.646Z,101304.78
2023-03-12T15:16:38.956Z,101315.35
2023-03-12T15:19:07.399Z,101318.82
2023-03-12T15:21:36.070Z,101326.64
2023-03-12T15:24:04.505Z,101332.02
2023-03-12T15:26:38.265Z,101333.23
2023-03-12T15:29:27.078Z,101336.90
2023-03-12T15:31:57.476Z,101340.41
2023-03-12T15:34:33.255Z,101347.38
2023-03-12T15:37:03.039Z,101351.55
2023-03-12T15:39:33.455Z,101363.38
2023-03-12T15:42:07.796Z,101364.10
2023-03-12T15:44:55.157Z,101372.64
2023-03-12T15:47:25.556Z,101379.23
2023-03-12T15:49:58.443Z,101382.89
2023-03-12T15:52:32.170Z,101392.33
2023-03-12T15:55:02.808Z,101395.83
2023-03-12T15:57:34.339Z,101397.93
2023-03-12T16:00:14.652Z,101404.92
2023-03-12T16:02:57.458Z,101409.60
2023-03-12T16:05:37.171Z,101418.67
2023-03-12T16:08:27.349Z,101418.90
2023-03-12T16:10:55.761Z,101428.30
2023-03-12T16:13:28.639Z,101439.94
2023-03-12T16:15:59.862Z,101440.66
2023-03-12T16:18:28.351Z,101444.84
2023-03-12T16:20:56.756Z,101449.89
2023-03-12T16:23:25.211Z,101454.77
2023-03-12T16:25:54.718Z,101458.41
2023-03-12T16:28:24.022Z,101467.96
2023-03-12T16:30:52.712Z,101471.79
2023-03-12T16:33:22.681Z,101474.20
2023-03-12T16:35:51.789Z,101477.51
2023-03-12T16:38:20.427Z,101480.64
2023-03-12T16:40:54.601Z,101486.54
2023-03-12T16:43:24.416Z,101496.43
2023-03-12T16:45:53.237Z,101507.02
2023-03-12T16:48:24.310Z,101517.59
2023-03-12T16:50:57.051Z,101520.23
2023-03-12T16:53:25.501Z,101528.54
2023-03-12T16:55:59.898Z,101529.21
2023-03-12T16:58:31.070Z,101537.90
2023-03-12T17:01:00.216Z,101543.09
2023-03-12T17:03:36.738Z,101545.35
2023-03-12T17:06:08.210Z,101552.98
2023-03-12T17:08:37.273Z,101559.40
2023-03-12T17:11:17.530Z,101566.70
2023-03-12T17:13:47.239Z,101570.84
2023-03-12T17:16:15.867Z,101573.12
2023-03-12T17:18:56.982Z,101572.98
2023-03-12T17:21:26.202Z,101578.02
2023-03-12T17:23:59.090Z,101576.14
2023-03-12T17:26:27.790Z,101582.05
2023-03-12T17:28:56.353Z,101582.41
2023-03-12T17:31:25.050Z,101585.72
2023-03-12T17:33:54.242Z,101593.35
2023-03-12T17:36:23.953Z,101599.61
2023-03-12T17:38:52.432Z,101604.31
2023-03-12T17:41:26.390Z,101605.18
2023-03-12T17:44:00.040Z,101605.89
2023-03-12T17:46:29.107Z,101612.34
2023-03-12T17:49:01.198Z,101617.52
2023-03-12T17:51:29.980Z,101619.27
2023-03-12T17:53:58.366Z,101626.20
2023-03-12T17:56:26.840Z,101631.94
2023-03-12T17:58:55.215Z,101635.07
2023-03-12T18:01:24.335Z,101641.30
2023-03-12T18:03:53.201Z,101648.93
2023-03-12T18:06:26.090Z,101655.18
2023-03-12T18:08:55.078Z,101656.40
2023-03-12T18:11:23.606Z,101662.81
2023-03-12T18:13:54.598Z,101664.20
2023-03-12T18:16:24.097Z,101663.36
2023-03-12T18:18:53.121Z,101666.14
2023-03-12T18:21:22.006Z,101664.59
2023-03-12T18:23:51.182Z,101668.92
2023-03-12T18:26:21.504Z,101673.60
2023-03-12T18:28:50.406Z,101680.35
2023-03-12T18:31:19.042Z,101680.52
2023-03-12T18:33:51.872Z,101677.08
2023-03-12T18:36:20.557Z,101681.23
2023-03-12T18:38:53.643Z,101681.23
2023-03-12T18:41:22.026Z,101684.35
2023-03-12T18:43:50.402Z,101685.91
2023-03-12T18:46:19.379Z,101690.75
2023-03-12T18:48:47.775Z,101691.97
2023-03-12T18:51:16.454Z,101696.29
2023-03-12T18:53:47.597Z,101696.46
2023-03-12T18:56:16.186Z,101695.78
2023-03-12T18:58:47.328Z,101697.86
2023-03-12T19:01:15.802Z,101700.79
2023-03-12T19:03:45.689Z,101708.22
2023-03-12T19:06:15.874Z,101706.15
2023-03-12T19:08:47.796Z,101706.32
2023-03-12T19:11:17.429Z,101704.40
2023-03-12T19:13:49.776Z,101704.92
2023-03-12T19:16:22.173Z,101697.83
2023-03-12T19:18:51.142Z,101714.27
2023-03-12T19:21:19.413Z,101727.21
2023-03-12T19:23:48.008Z,101732.05
2023-03-12T19:26:16.687Z,101737.05
2023-03-12T19:28:45.164Z,101742.05
2023-03-12T19:31:15.614Z,101748.61
2023-03-12T19:33:45.110Z,101761.73
2023-03-12T19:36:14.001Z,101765.67
2023-03-12T19:38:42.667Z,101770.14
2023-03-12T19:41:11.873Z,101777.21
2023-03-12T19:43:42.086Z,101781.34
2023-03-12T19:46:10.548Z,101782.37
2023-03-12T19:48:42.737Z,101788.05
2023-03-12T19:51:11.727Z,101792.03
2023-03-12T19:53:40.509Z,101790.63
2023-03-12T19:56:08.992Z,101801.52
2023-03-12T19:58:38.297Z,101804.61
2023-03-12T20:01:06.873Z,101802.18
2023-03-12T20:03:35.310Z,101807.19
2023-03-12T20:06:04.554Z,101811.33
2023-03-12T20:08:33.033Z,101812.52
2023-03-12T20:11:05.687Z,101813.02
2023-03-12T20:13:40.337Z,101818.36
2023-03-12T20:16:09.167Z,101819.73
2023-03-12T20:18:38.324Z,101825.24
2023-03-12T20:21:07.002Z,101831.45
2023-03-12T20:23:35.385Z,101833.83
2023-03-12T20:26:05.199Z,101839.36
2023-03-12T20:28:33.888Z,101838.30
2023-03-12T20:31:12.855Z,101837.41
2023-03-12T20:33:43.845Z,101838.25
2023-03-12T20:36:13.239Z,101845.64
2023-03-12T20:38:43.003Z,101847.36
2023-03-12T20:41:14.508Z,101850.27
2023-03-12T20:43:43.009Z,101851.96
2023-03-12T20:46:12.365Z,101858.00
2023-03-12T20:48:43.643Z,101858.98
2023-03-12T20:54:35.589Z,101863.09
2023-03-12T20:57:03.965Z,101865.28
2023-03-12T20:59:32.704Z,101868.70
2023-03-12T21:02:01.073Z,101869.19
2023-03-12T21:04:30.142Z,101872.26
2023-03-12T21:07:03.746Z,101875.15
2023-03-12T21:09:33.032Z,101877.19
2023-03-12T21:12:01.819Z,101885.23
2023-03-12T21:14:30.602Z,101892.98
2023-03-12T21:16:59.230Z,101895.16
2023-03-12T21:19:31.660Z,101896.52
2023-03-12T21:22:01.123Z,101900.95
2023-03-12T21:24:29.747Z,101901.60
2023-03-12T21:26:58.328Z,101903.29
2023-03-12T21:29:26.707Z,101904.81
2023-03-12T21:31:55.413Z,101906.84
2023-03-12T21:34:23.771Z,101910.95
2023-03-12T21:36:52.373Z,101908.16
2023-03-12T21:39:23.910Z,101916.23
2023-03-12T21:41:52.182Z,101921.42
2023-03-12T21:44:25.168Z,101922.91
2023-03-12T21:46:54.325Z,101925.13
2023-03-12T21:49:22.840Z,101929.02
2023-03-12T21:51:52.349Z,101929.52
2023-03-12T21:54:20.722Z,101935.70
2023-03-12T21:56:54.530Z,101940.16
2023-03-12T21:59:23.326Z,101943.42
2023-03-12T22:01:51.866Z,101944.26
2023-03-12T22:04:21.268Z,101948.54
2023-03-12T22:06:50.428Z,101951.44
2023-03-12T22:09:19.490Z,101952.10
2023-03-12T22:11:47.870Z,101958.27
2023-03-12T22:14:16.460Z,101962.17
2023-03-12T22:16:46.064Z,101965.08
2023-03-12T22:19:14.754Z,101968.15
2023-03-12T22:21:43.362Z,101969.16
2023-03-12T22:24:12.930Z,101968.95
2023-03-12T22:26:41.320Z,101973.23
2023-03-12T22:29:16.473Z,101977.65
2023-03-12T22:31:45.749Z,101976.75
2023-03-12T22:34:15.864Z,101977.39
2023-03-12T22:36:44.351Z,101977.54
2023-03-12T22:39:12.829Z,101979.58
2023-03-12T22:41:41.409Z,101987.29
2023-03-12T22:44:09.853Z,101987.61
2023-03-12T22:46:43.330Z,101989.83
2023-03-12T22:49:12.007Z,101993.77
2023-03-12T22:51:40.449Z,101992.20
2023-03-12T22:54:09.240Z,101993.74
2023-03-12T22:56:37.725Z,101995.45
2023-03-12T22:59:06.713Z,102001.81
2023-03-12T23:01:35.312Z,102005.41
2023-03-12T23:04:06.648Z,102010.58
2023-03-12T23:06:34.920Z,102015.05
2023-03-12T23:09:03.395Z,102013.84
2023-03-12T23:11:36.382Z,102015.37
2023-03-12T23:14:04.764Z,102021.22
2023-03-12T23:16:33.395Z,102025.01
2023-03-12T23:19:02.646Z,102025.36
2023-03-12T23:21:32.360Z,102031.39
2023-03-12T23:24:02.782Z,102030.36
2023-03-12T23:26:34.126Z,102026.56
2023-03-12T23:29:02.502Z,102029.14
2023-03-12T23:31:31.172Z,102029.14
2023-03-12T23:33:59.468Z,102028.46
2023-03-12T23:36:32.248Z,102032.23
2023-03-12T23:39:00.634Z,102033.62
2023-03-12T23:41:32.274Z,102033.95
2023-03-12T23:47:26.302Z,102037.40
2023-03-12T23:49:55.069Z,102042.54
2023-03-12T23:52:26.653Z,102040.81
2023-03-12T23:54:55.815Z,102044.27
2023-03-12T23:57:24.402Z,102044.60
2023-03-12T23:59:54.036Z,102045.10
